sensor_id;sensor_type;location;lat;lon;timestamp;pressure;altitude;pressure_sealevel;temperature;humidity
4570;BME280;2297;51.442;6.996;2022-12-11T00:00:26;99851.81;;;2.45;53.96
4570;BME280;2297;51.442;6.996;2022-12-11T00:02:53;99841.41;;;2.45;54.31
4570;BME280;2297;51.442;6.996;2022-12-11T00:05:20;99842.34;;;2.61;54.12
4570;BME280;2297;51.442;6.996;2022-12-11T00:07:48;99843.16;;;2.52;54.20
4570;BME280;2297;51.442;6.996;2022-12-11T00:10:15;99829.22;;;2.48;54.29
4570;BME280;2297;51.442;6.996;2022-12-11T00:12:43;99839.69;;;2.52;54.44
4570;BME280;2297;51.442;6.996;2022-12-11T00:15:10;99841.41;;;2.53;54.32
4570;BME280;2297;51.442;6.996;2022-12-11T00:17:36;99839.66;;;2.50;54.31
4570;BME280;2297;51.442;6.996;2022-12-11T00:20:04;99843.19;;;2.61;54.14
4570;BME280;2297;51.442;6.996;2022-12-11T00:22:30;99832.81;;;2.69;54.22
4570;BME280;2297;51.442;6.996;2022-12-11T00:24:57;99842.41;;;2.86;53.79
4570;BME280;2297;51.442;6.996;2022-12-11T00:27:24;99840.69;;;2.88;53.53
4570;BME280;2297;51.442;6.996;2022-12-11T00:29:52;99840.66;;;2.78;53.74
4570;BME280;2297;51.442;6.996;2022-12-11T00:32:19;99849.31;;;2.65;54.33
4570;BME280;2297;51.442;6.996;2022-12-11T00:34:46;99838.91;;;2.74;54.03
4570;BME280;2297;51.442;6.996;2022-12-11T00:37:13;99844.06;;;2.59;54.50
4570;BME280;2297;51.442;6.996;2022-12-11T00:39:39;99842.38;;;2.76;54.23
4570;BME280;2297;51.442;6.996;2022-12-11T00:42:06;99847.38;;;2.24;55.10
4570;BME280;2297;51.442;6.996;2022-12-11T00:44:33;99840.50;;;2.38;55.34
4570;BME280;2297;51.442;6.996;2022-12-11T00:47:01;99844.81;;;2.36;55.48
4570;BME280;2297;51.442;6.996;2022-12-11T00:49:28;99839.69;;;2.52;55.18
4570;BME280;2297;51.442;6.996;2022-12-11T00:51:54;99847.56;;;2.67;54.88
4570;BME280;2297;51.442;6.996;2022-12-11T00:54:21;99851.94;;;2.73;54.77
4570;BME280;2297;51.442;6.996;2022-12-11T00:56:48;99849.22;;;2.50;55.56
4570;BME280;2297;51.442;6.996;2022-12-11T00:59:15;99839.66;;;2.48;55.46
4570;BME280;2297;51.442;6.996;2022-12-11T01:01:41;99842.31;;;2.58;55.46
4570;BME280;2297;51.442;6.996;2022-12-11T01:04:09;99844.94;;;2.61;55.59
4570;BME280;2297;51.442;6.996;2022-12-11T01:06:36;99840.47;;;2.35;56.16
4570;BME280;2297;51.442;6.996;2022-12-11T01:09:02;99838.78;;;2.48;56.06
4570;BME280;2297;51.442;6.996;2022-12-11T01:11:46;99837.00;;;2.36;56.47
4570;BME280;2297;51.442;6.996;2022-12-11T01:14:13;99829.97;;;2.23;56.87
4570;BME280;2297;51.442;6.996;2022-12-11T01:16:40;99829.97;;;2.20;57.02
4570;BME280;2297;51.442;6.996;2022-12-11T01:19:06;99833.53;;;2.43;56.51
4570;BME280;2297;51.442;6.996;2022-12-11T01:21:34;99821.44;;;2.58;56.02
4570;BME280;2297;51.442;6.996;2022-12-11T01:24:01;99829.31;;;2.69;55.99
4570;BME280;2297;51.442;6.996;2022-12-11T01:26:28;99837.16;;;2.70;55.69
4570;BME280;2297;51.442;6.996;2022-12-11T01:28:55;99828.31;;;2.43;56.25
4570;BME280;2297;51.442;6.996;2022-12-11T01:31:21;99825.88;;;2.74;55.63
4570;BME280;2297;51.442;6.996;2022-12-11T01:33:48;99839.81;;;2.86;55.17
4570;BME280;2297;51.442;6.996;2022-12-11T01:36:16;99832.88;;;2.88;54.78
4570;BME280;2297;51.442;6.996;2022-12-11T01:38:46;99826.75;;;2.79;55.01
4570;BME280;2297;51.442;6.996;2022-12-11T01:41:14;99835.34;;;2.51;55.38
4570;BME280;2297;51.442;6.996;2022-12-11T01:44:02;99831.00;;;2.60;55.06
4570;BME280;2297;51.442;6.996;2022-12-11T01:46:30;99825.72;;;2.40;55.32
4570;BME280;2297;51.442;6.996;2022-12-11T01:48:57;99830.97;;;2.51;55.29
4570;BME280;2297;51.442;6.996;2022-12-11T01:51:25;99828.28;;;2.34;55.57
4570;BME280;2297;51.442;6.996;2022-12-11T01:53:57;99827.50;;;2.47;55.24
4570;BME280;2297;51.442;6.996;2022-12-11T01:56:24;99830.03;;;2.29;55.38
4570;BME280;2297;51.442;6.996;2022-12-11T01:58:55;99823.06;;;2.34;55.39
4570;BME280;2297;51.442;6.996;2022-12-11T02:01:29;99825.56;;;2.14;55.41
4570;BME280;2297;51.442;6.996;2022-12-11T02:03:57;99828.28;;;2.31;54.77
4570;BME280;2297;51.442;6.996;2022-12-11T02:06:30;99819.69;;;2.54;54.08
4570;BME280;2297;51.442;6.996;2022-12-11T02:08:58;99819.72;;;2.63;53.72
4570;BME280;2297;51.442;6.996;2022-12-11T02:11:30;99811.09;;;2.70;53.47
4570;BME280;2297;51.442;6.996;2022-12-11T02:14:02;99811.09;;;2.70;53.06
4570;BME280;2297;51.442;6.996;2022-12-11T02:16:36;99820.66;;;2.79;52.76
4570;BME280;2297;51.442;6.996;2022-12-11T02:19:11;99822.38;;;2.69;52.75
4570;BME280;2297;51.442;6.996;2022-12-11T02:21:46;99821.34;;;2.33;53.48
4570;BME280;2297;51.442;6.996;2022-12-11T02:24:43;99826.56;;;2.36;53.79
4570;BME280;2297;51.442;6.996;2022-12-11T02:27:22;99815.38;;;2.59;53.33
4570;BME280;2297;51.442;6.996;2022-12-11T02:29:58;99814.28;;;2.17;54.06
4570;BME280;2297;51.442;6.996;2022-12-11T02:32:32;99819.69;;;2.47;53.26
4570;BME280;2297;51.442;6.996;2022-12-11T02:35:05;99816.94;;;2.20;53.98
4570;BME280;2297;51.442;6.996;2022-12-11T02:37:35;99811.78;;;2.29;53.86
4570;BME280;2297;51.442;6.996;2022-12-11T02:40:06;99810.97;;;2.45;53.58
4570;BME280;2297;51.442;6.996;2022-12-11T02:42:34;99810.84;;;2.22;54.26
4570;BME280;2297;51.442;6.996;2022-12-11T02:45:06;99812.69;;;2.40;53.97
4570;BME280;2297;51.442;6.996;2022-12-11T02:47:33;99812.63;;;2.28;54.31
4570;BME280;2297;51.442;6.996;2022-12-11T02:50:01;99813.44;;;2.18;54.19
4570;BME280;2297;51.442;6.996;2022-12-11T02:52:30;99814.28;;;2.13;54.71
4570;BME280;2297;51.442;6.996;2022-12-11T02:54:59;99812.66;;;2.34;54.34
4570;BME280;2297;51.442;6.996;2022-12-11T02:57:30;99808.34;;;2.41;54.12
4570;BME280;2297;51.442;6.996;2022-12-11T03:00:13;99800.59;;;2.52;53.68
4570;BME280;2297;51.442;6.996;2022-12-11T03:02:41;99801.34;;;2.34;53.81
4570;BME280;2297;51.442;6.996;2022-12-11T03:05:09;99799.47;;;2.03;54.77
4570;BME280;2297;51.442;6.996;2022-12-11T03:07:38;99795.25;;;2.27;53.86
4570;BME280;2297;51.442;6.996;2022-12-11T03:10:07;99786.63;;;2.37;53.88
4570;BME280;2297;51.442;6.996;2022-12-11T03:12:36;99790.19;;;2.61;53.22
4570;BME280;2297;51.442;6.996;2022-12-11T03:15:07;99786.75;;;2.74;52.95
4570;BME280;2297;51.442;6.996;2022-12-11T03:17:42;99788.47;;;2.74;52.44
4570;BME280;2297;51.442;6.996;2022-12-11T03:20:18;99794.56;;;2.80;52.13
4570;BME280;2297;51.442;6.996;2022-12-11T03:22:53;99792.84;;;2.79;52.15
4570;BME280;2297;51.442;6.996;2022-12-11T03:25:28;99787.59;;;2.78;52.28
4570;BME280;2297;51.442;6.996;2022-12-11T03:28:02;99788.47;;;2.74;52.23
4570;BME280;2297;51.442;6.996;2022-12-11T03:30:34;99795.41;;;2.64;52.54
4570;BME280;2297;51.442;6.996;2022-12-11T03:33:04;99791.94;;;2.71;52.40
4570;BME280;2297;51.442;6.996;2022-12-11T03:35:33;99796.22;;;2.51;52.80
4570;BME280;2297;51.442;6.996;2022-12-11T03:38:04;99800.59;;;2.55;52.67
4570;BME280;2297;51.442;6.996;2022-12-11T03:40:33;99795.28;;;2.33;53.37
4570;BME280;2297;51.442;6.996;2022-12-11T03:43:01;99797.06;;;2.43;53.57
4570;BME280;2297;51.442;6.996;2022-12-11T03:45:29;99795.38;;;2.52;53.17
4570;BME280;2297;51.442;6.996;2022-12-11T03:47:58;99802.34;;;2.62;53.08
4570;BME280;2297;51.442;6.996;2022-12-11T03:50:30;99803.19;;;2.58;53.16
4570;BME280;2297;51.442;6.996;2022-12-11T03:53:04;99800.63;;;2.67;52.98
4570;BME280;2297;51.442;6.996;2022-12-11T03:55:31;99790.25;;;2.79;52.77
4570;BME280;2297;51.442;6.996;2022-12-11T03:57:58;99791.09;;;2.80;52.69
4570;BME280;2297;51.442;6.996;2022-12-11T04:00:25;99786.78;;;2.93;52.26
4570;BME280;2297;51.442;6.996;2022-12-11T04:03:01;99785.03;;;2.79;52.49
4570;BME280;2297;51.442;6.996;2022-12-11T04:05:44;99788.50;;;2.81;52.39
4570;BME280;2297;51.442;6.996;2022-12-11T04:08:11;99790.16;;;2.52;53.27
4570;BME280;2297;51.442;6.996;2022-12-11T04:10:39;99785.88;;;2.66;53.05
4570;BME280;2297;51.442;6.996;2022-12-11T04:13:05;99785.03;;;2.83;52.92
4570;BME280;2297;51.442;6.996;2022-12-11T04:15:32;99787.59;;;2.69;52.73
4570;BME280;2297;51.442;6.996;2022-12-11T04:17:58;99781.56;;;2.87;52.52
4570;BME280;2297;51.442;6.996;2022-12-11T04:20:43;99782.44;;;2.96;52.53
4570;BME280;2297;51.442;6.996;2022-12-11T04:23:27;99783.34;;;3.09;52.18
4570;BME280;2297;51.442;6.996;2022-12-11T04:26:13;99788.56;;;3.14;51.90
4570;BME280;2297;51.442;6.996;2022-12-11T04:28:41;99779.88;;;3.12;52.08
4570;BME280;2297;51.442;6.996;2022-12-11T04:31:10;99775.50;;;2.94;52.40
4570;BME280;2297;51.442;6.996;2022-12-11T04:33:37;99782.47;;;2.98;52.37
4570;BME280;2297;51.442;6.996;2022-12-11T04:36:06;99774.59;;;2.95;52.45
4570;BME280;2297;51.442;6.996;2022-12-11T04:38:33;99779.84;;;2.89;52.64
4570;BME280;2297;51.442;6.996;2022-12-11T04:41:01;99778.97;;;2.91;52.58
4570;BME280;2297;51.442;6.996;2022-12-11T04:43:28;99770.25;;;2.91;52.71
4570;BME280;2297;51.442;6.996;2022-12-11T04:46:02;99769.38;;;2.86;52.88
4570;BME280;2297;51.442;6.996;2022-12-11T04:48:28;99766.78;;;2.92;52.72
4570;BME280;2297;51.442;6.996;2022-12-11T04:50:55;99761.50;;;2.69;52.90
4570;BME280;2297;51.442;6.996;2022-12-11T04:53:23;99757.22;;;2.75;53.07
4570;BME280;2297;51.442;6.996;2022-12-11T04:55:50;99758.94;;;2.87;52.66
4570;BME280;2297;51.442;6.996;2022-12-11T04:58:17;99766.78;;;2.84;52.82
4570;BME280;2297;51.442;6.996;2022-12-11T05:00:44;99764.16;;;2.86;52.73
4570;BME280;2297;51.442;6.996;2022-12-11T05:03:11;99767.59;;;2.60;53.42
4570;BME280;2297;51.442;6.996;2022-12-11T05:05:38;99765.88;;;2.70;53.34
4570;BME280;2297;51.442;6.996;2022-12-11T05:08:04;99763.28;;;2.76;53.35
4570;BME280;2297;51.442;6.996;2022-12-11T05:10:38;99760.72;;;2.96;52.75
4570;BME280;2297;51.442;6.996;2022-12-11T05:13:05;99754.66;;;3.05;52.50
4570;BME280;2297;51.442;6.996;2022-12-11T05:15:31;99759.84;;;3.09;52.15
4570;BME280;2297;51.442;6.996;2022-12-11T05:17:58;99758.13;;;3.19;52.08
4570;BME280;2297;51.442;6.996;2022-12-11T05:20:24;99765.09;;;3.05;52.10
4570;BME280;2297;51.442;6.996;2022-12-11T05:22:51;99764.22;;;3.07;52.24
4570;BME280;2297;51.442;6.996;2022-12-11T05:25:18;99763.28;;;2.87;52.62
4570;BME280;2297;51.442;6.996;2022-12-11T05:27:46;99765.91;;;2.87;52.50
4570;BME280;2297;51.442;6.996;2022-12-11T05:30:12;99770.16;;;2.55;53.24
4570;BME280;2297;51.442;6.996;2022-12-11T05:32:39;99775.41;;;2.57;53.35
4570;BME280;2297;51.442;6.996;2022-12-11T05:35:06;99773.72;;;2.73;53.20
4570;BME280;2297;51.442;6.996;2022-12-11T05:37:33;99768.44;;;2.62;53.17
4570;BME280;2297;51.442;6.996;2022-12-11T05:39:59;99766.72;;;2.65;53.33
4570;BME280;2297;51.442;6.996;2022-12-11T05:42:26;99774.59;;;2.81;53.01
4570;BME280;2297;51.442;6.996;2022-12-11T05:44:54;99771.16;;;2.96;52.65
4570;BME280;2297;51.442;6.996;2022-12-11T05:47:21;99758.09;;;2.82;52.72
4570;BME280;2297;51.442;6.996;2022-12-11T05:49:47;99764.19;;;2.98;52.18
4570;BME280;2297;51.442;6.996;2022-12-11T05:52:14;99756.38;;;2.98;52.20
4570;BME280;2297;51.442;6.996;2022-12-11T05:54:41;99753.75;;;3.06;51.83
4570;BME280;2297;51.442;6.996;2022-12-11T05:57:08;99755.47;;;2.99;51.90
4570;BME280;2297;51.442;6.996;2022-12-11T05:59:34;99755.47;;;2.99;52.02
4570;BME280;2297;51.442;6.996;2022-12-11T06:02:02;99757.22;;;2.88;52.09
4570;BME280;2297;51.442;6.996;2022-12-11T06:04:29;99753.75;;;3.01;52.14
4570;BME280;2297;51.442;6.996;2022-12-11T06:06:55;99755.50;;;3.16;51.94
4570;BME280;2297;51.442;6.996;2022-12-11T06:09:22;99753.78;;;3.07;51.85
4570;BME280;2297;51.442;6.996;2022-12-11T06:11:49;99758.94;;;2.79;52.57
4570;BME280;2297;51.442;6.996;2022-12-11T06:14:15;99760.72;;;2.93;52.58
4570;BME280;2297;51.442;6.996;2022-12-11T06:16:42;99751.09;;;2.78;53.06
4570;BME280;2297;51.442;6.996;2022-12-11T06:19:14;99755.44;;;2.80;53.33
4570;BME280;2297;51.442;6.996;2022-12-11T06:21:43;99754.59;;;2.78;53.62
4570;BME280;2297;51.442;6.996;2022-12-11T06:24:10;99738.03;;;2.65;54.00
4570;BME280;2297;51.442;6.996;2022-12-11T06:26:37;99743.28;;;2.73;53.85
4570;BME280;2297;51.442;6.996;2022-12-11T06:29:04;99745.88;;;2.65;54.15
4570;BME280;2297;51.442;6.996;2022-12-11T06:31:30;99740.66;;;2.73;53.87
4570;BME280;2297;51.442;6.996;2022-12-11T06:33:57;99745.88;;;2.70;54.05
4570;BME280;2297;51.442;6.996;2022-12-11T06:36:25;99743.28;;;2.83;53.91
4570;BME280;2297;51.442;6.996;2022-12-11T06:38:52;99752.84;;;2.88;53.68
4570;BME280;2297;51.442;6.996;2022-12-11T06:41:20;99745.03;;;2.79;53.73
4570;BME280;2297;51.442;6.996;2022-12-11T06:43:46;99749.41;;;2.94;53.82
4570;BME280;2297;51.442;6.996;2022-12-11T06:46:15;99754.59;;;2.78;53.80
4570;BME280;2297;51.442;6.996;2022-12-11T06:48:42;99754.59;;;2.75;54.07
4570;BME280;2297;51.442;6.996;2022-12-11T06:51:11;99754.59;;;2.78;53.60
4570;BME280;2297;51.442;6.996;2022-12-11T06:53:39;99752.00;;;2.88;53.63
4570;BME280;2297;51.442;6.996;2022-12-11T06:56:08;99756.34;;;2.92;53.59
4570;BME280;2297;51.442;6.996;2022-12-11T06:58:36;99753.56;;;2.27;54.61
4570;BME280;2297;51.442;6.996;2022-12-11T07:01:04;99757.22;;;2.75;54.10
4570;BME280;2297;51.442;6.996;2022-12-11T07:03:38;99750.22;;;2.71;54.07
4570;BME280;2297;51.442;6.996;2022-12-11T07:06:04;99746.81;;;2.94;54.14
4570;BME280;2297;51.442;6.996;2022-12-11T07:08:31;99750.28;;;3.01;53.99
4570;BME280;2297;51.442;6.996;2022-12-11T07:11:03;99750.25;;;2.84;54.41
4570;BME280;2297;51.442;6.996;2022-12-11T07:13:29;99752.03;;;2.97;53.86
4570;BME280;2297;51.442;6.996;2022-12-11T07:15:57;99764.19;;;3.13;54.14
4570;BME280;2297;51.442;6.996;2022-12-11T07:18:24;99764.22;;;3.23;53.69
4570;BME280;2297;51.442;6.996;2022-12-11T07:20:51;99755.53;;;3.21;53.09
4570;BME280;2297;51.442;6.996;2022-12-11T07:23:17;99756.38;;;3.24;53.42
4570;BME280;2297;51.442;6.996;2022-12-11T07:25:44;99753.78;;;3.35;53.12
4570;BME280;2297;51.442;6.996;2022-12-11T07:28:12;99757.28;;;3.22;52.76
4570;BME280;2297;51.442;6.996;2022-12-11T07:30:39;99758.13;;;3.24;52.68
4570;BME280;2297;51.442;6.996;2022-12-11T07:33:06;99760.72;;;3.02;52.84
4570;BME280;2297;51.442;6.996;2022-12-11T07:35:33;99759.84;;;3.09;53.00
4570;BME280;2297;51.442;6.996;2022-12-11T07:38:00;99755.50;;;3.18;52.85
4570;BME280;2297;51.442;6.996;2022-12-11T07:40:26;99758.13;;;3.19;52.83
4570;BME280;2297;51.442;6.996;2022-12-11T07:42:53;99759.00;;;3.23;52.68
4570;BME280;2297;51.442;6.996;2022-12-11T07:45:21;99767.69;;;3.31;52.67
4570;BME280;2297;51.442;6.996;2022-12-11T07:47:47;99766.81;;;3.34;52.92
4570;BME280;2297;51.442;6.996;2022-12-11T07:50:14;99759.88;;;3.46;52.75
4570;BME280;2297;51.442;6.996;2022-12-11T07:52:41;99770.28;;;3.57;52.11
4570;BME280;2297;51.442;6.996;2022-12-11T07:55:09;99767.69;;;3.56;51.99
4570;BME280;2297;51.442;6.996;2022-12-11T07:57:35;99767.69;;;3.20;52.50
4570;BME280;2297;51.442;6.996;2022-12-11T08:00:03;99765.97;;;3.48;51.96
4570;BME280;2297;51.442;6.996;2022-12-11T08:02:31;99769.44;;;3.32;52.03
4570;BME280;2297;51.442;6.996;2022-12-11T08:04:58;99769.34;;;2.76;53.63
4570;BME280;2297;51.442;6.996;2022-12-11T08:07:24;99774.66;;;3.07;52.80
4570;BME280;2297;51.442;6.996;2022-12-11T08:09:51;99771.16;;;2.96;53.02
4570;BME280;2297;51.442;6.996;2022-12-11T08:12:18;99774.59;;;2.95;52.88
4570;BME280;2297;51.442;6.996;2022-12-11T08:14:44;99777.22;;;3.06;53.08
4570;BME280;2297;51.442;6.996;2022-12-11T08:17:11;99771.13;;;2.97;52.88
4570;BME280;2297;51.442;6.996;2022-12-11T08:19:39;99762.50;;;3.12;53.11
4570;BME280;2297;51.442;6.996;2022-12-11T08:22:05;99774.63;;;3.15;52.71
4570;BME280;2297;51.442;6.996;2022-12-11T08:24:32;99771.16;;;3.02;52.69
4570;BME280;2297;51.442;6.996;2022-12-11T08:26:59;99774.59;;;2.95;52.67
4570;BME280;2297;51.442;6.996;2022-12-11T08:29:25;99780.72;;;3.02;52.88
4570;BME280;2297;51.442;6.996;2022-12-11T08:31:52;99778.94;;;2.90;52.88
4570;BME280;2297;51.442;6.996;2022-12-11T08:34:19;99772.84;;;2.81;53.12
4570;BME280;2297;51.442;6.996;2022-12-11T08:36:47;99774.63;;;2.98;53.35
4570;BME280;2297;51.442;6.996;2022-12-11T08:39:13;99769.44;;;3.10;53.19
4570;BME280;2297;51.442;6.996;2022-12-11T08:41:40;99763.34;;;3.16;52.65
4570;BME280;2297;51.442;6.996;2022-12-11T08:44:09;99764.22;;;3.20;52.42
4570;BME280;2297;51.442;6.996;2022-12-11T08:46:37;99765.09;;;3.03;52.24
4570;BME280;2297;51.442;6.996;2022-12-11T08:49:03;99761.59;;;3.20;52.01
4570;BME280;2297;51.442;6.996;2022-12-11T08:51:30;99756.41;;;3.29;51.89
4570;BME280;2297;51.442;6.996;2022-12-11T08:53:59;99749.44;;;3.12;51.80
4570;BME280;2297;51.442;6.996;2022-12-11T08:56:27;99757.25;;;3.09;52.33
4570;BME280;2297;51.442;6.996;2022-12-11T08:58:54;99762.47;;;3.19;52.24
4570;BME280;2297;51.442;6.996;2022-12-11T09:01:23;99760.72;;;3.18;52.05
4570;BME280;2297;51.442;6.996;2022-12-11T09:03:51;99758.97;;;3.13;52.05
4570;BME280;2297;51.442;6.996;2022-12-11T09:06:20;99765.06;;;3.00;52.49
4570;BME280;2297;51.442;6.996;2022-12-11T09:08:48;99768.56;;;3.14;52.67
4570;BME280;2297;51.442;6.996;2022-12-11T09:11:18;99765.94;;;3.01;52.35
4570;BME280;2297;51.442;6.996;2022-12-11T09:13:45;99760.72;;;3.14;52.50
4570;BME280;2297;51.442;6.996;2022-12-11T09:16:13;99764.22;;;3.20;52.41
4570;BME280;2297;51.442;6.996;2022-12-11T09:18:40;99764.22;;;3.07;52.38
4570;BME280;2297;51.442;6.996;2022-12-11T09:21:08;99764.22;;;3.27;52.54
4570;BME280;2297;51.442;6.996;2022-12-11T09:23:36;99766.84;;;3.35;51.90
4570;BME280;2297;51.442;6.996;2022-12-11T09:26:03;99765.09;;;3.03;51.89
4570;BME280;2297;51.442;6.996;2022-12-11T09:28:31;99773.75;;;3.07;51.81
4570;BME280;2297;51.442;6.996;2022-12-11T09:30:58;99766.84;;;3.18;52.02
4570;BME280;2297;51.442;6.996;2022-12-11T09:33:25;99770.31;;;3.34;52.20
4570;BME280;2297;51.442;6.996;2022-12-11T09:35:58;99764.19;;;3.06;51.86
4570;BME280;2297;51.442;6.996;2022-12-11T09:38:25;99757.25;;;3.25;52.14
4570;BME280;2297;51.442;6.996;2022-12-11T09:40:52;99752.91;;;3.36;51.44
4570;BME280;2297;51.442;6.996;2022-12-11T09:43:32;99748.56;;;3.32;51.29
4570;BME280;2297;51.442;6.996;2022-12-11T09:46:04;99755.53;;;3.33;51.27
4570;BME280;2297;51.442;6.996;2022-12-11T09:48:32;99757.25;;;3.29;51.36
4570;BME280;2297;51.442;6.996;2022-12-11T09:51:07;99758.13;;;3.42;51.46
4570;BME280;2297;51.442;6.996;2022-12-11T09:53:35;99759.00;;;3.44;51.69
4570;BME280;2297;51.442;6.996;2022-12-11T09:56:10;99769.44;;;3.23;51.71
4570;BME280;2297;51.442;6.996;2022-12-11T09:58:51;99763.34;;;3.22;51.63
4570;BME280;2297;51.442;6.996;2022-12-11T10:01:28;99770.31;;;3.15;52.18
4570;BME280;2297;51.442;6.996;2022-12-11T10:06:56;99758.13;;;3.10;52.35
4570;BME280;2297;51.442;6.996;2022-12-11T10:09:29;99765.94;;;3.02;52.55
4570;BME280;2297;51.442;6.996;2022-12-11T10:12:12;99765.91;;;2.99;52.15
4570;BME280;2297;51.442;6.996;2022-12-11T10:14:52;99762.47;;;3.25;51.50
4570;BME280;2297;51.442;6.996;2022-12-11T10:17:26;99750.31;;;3.30;51.19
4570;BME280;2297;51.442;6.996;2022-12-11T10:19:54;99746.81;;;3.42;51.11
4570;BME280;2297;51.442;6.996;2022-12-11T10:22:23;99750.28;;;3.52;51.28
4570;BME280;2297;51.442;6.996;2022-12-11T10:24:55;99739.84;;;3.42;50.82
4570;BME280;2297;51.442;6.996;2022-12-11T10:27:26;99738.13;;;3.44;50.71
4570;BME280;2297;51.442;6.996;2022-12-11T10:30:03;99738.97;;;3.54;50.34
4570;BME280;2297;51.442;6.996;2022-12-11T10:32:48;99734.63;;;3.53;50.27
4570;BME280;2297;51.442;6.996;2022-12-11T10:35:17;99736.34;;;3.59;50.43
4570;BME280;2297;51.442;6.996;2022-12-11T10:37:44;99730.28;;;3.57;50.48
4570;BME280;2297;51.442;6.996;2022-12-11T10:40:12;99732.03;;;3.48;50.32
4570;BME280;2297;51.442;6.996;2022-12-11T10:42:39;99734.63;;;3.52;50.31
4570;BME280;2297;51.442;6.996;2022-12-11T10:45:14;99728.53;;;3.43;50.44
4570;BME280;2297;51.442;6.996;2022-12-11T10:47:41;99727.69;;;3.29;51.01
4570;BME280;2297;51.442;6.996;2022-12-11T10:50:21;99726.81;;;3.28;51.10
4570;BME280;2297;51.442;6.996;2022-12-11T10:52:49;99724.19;;;3.44;51.29
4570;BME280;2297;51.442;6.996;2022-12-11T10:55:19;99720.66;;;3.59;51.00
4570;BME280;2297;51.442;6.996;2022-12-11T10:57:54;99713.72;;;3.67;50.69
4570;BME280;2297;51.442;6.996;2022-12-11T11:00:33;99719.81;;;3.63;50.69
4570;BME280;2297;51.442;6.996;2022-12-11T11:03:01;99714.59;;;3.57;50.67
4570;BME280;2297;51.442;6.996;2022-12-11T11:05:31;99719.81;;;3.63;50.51
4570;BME280;2297;51.442;6.996;2022-12-11T11:08:03;99719.81;;;3.63;50.51
4570;BME280;2297;51.442;6.996;2022-12-11T11:10:34;99722.44;;;3.51;50.71
4570;BME280;2297;51.442;6.996;2022-12-11T11:13:01;99708.53;;;3.42;50.77
4570;BME280;2297;51.442;6.996;2022-12-11T11:15:30;99713.72;;;3.52;50.88
4570;BME280;2297;51.442;6.996;2022-12-11T11:18:02;99711.97;;;3.60;50.46
4570;BME280;2297;51.442;6.996;2022-12-11T11:20:34;99710.22;;;3.67;50.59
4570;BME280;2297;51.442;6.996;2022-12-11T11:23:12;99711.09;;;3.67;50.06
4570;BME280;2297;51.442;6.996;2022-12-11T11:25:48;99709.34;;;3.72;50.12
4570;BME280;2297;51.442;6.996;2022-12-11T11:28:18;99711.09;;;3.75;50.06
4570;BME280;2297;51.442;6.996;2022-12-11T11:30:56;99712.03;;;3.37;50.70
4570;BME280;2297;51.442;6.996;2022-12-11T11:33:24;99716.34;;;3.45;50.76
4570;BME280;2297;51.442;6.996;2022-12-11T11:35:52;99710.25;;;3.37;50.61
4570;BME280;2297;51.442;6.996;2022-12-11T11:38:21;99700.72;;;3.38;50.71
4570;BME280;2297;51.442;6.996;2022-12-11T11:40:53;99703.31;;;3.42;50.30
4570;BME280;2297;51.442;6.996;2022-12-11T11:43:33;99701.53;;;3.51;50.25
4570;BME280;2297;51.442;6.996;2022-12-11T11:46:24;99692.81;;;3.79;50.04
4570;BME280;2297;51.442;6.996;2022-12-11T11:48:58;99692.84;;;3.76;49.50
4570;BME280;2297;51.442;6.996;2022-12-11T11:51:33;99691.03;;;3.95;49.32
4570;BME280;2297;51.442;6.996;2022-12-11T11:54:07;99691.03;;;3.94;49.13
4570;BME280;2297;51.442;6.996;2022-12-11T11:56:36;99693.59;;;4.11;48.79
4570;BME280;2297;51.442;6.996;2022-12-11T11:59:10;99684.91;;;4.03;48.42
4570;BME280;2297;51.442;6.996;2022-12-11T12:01:42;99684.00;;;4.11;48.35
4570;BME280;2297;51.442;6.996;2022-12-11T12:04:10;99685.69;;;4.22;48.36
4570;BME280;2297;51.442;6.996;2022-12-11T12:06:56;99678.75;;;4.14;48.26
4570;BME280;2297;51.442;6.996;2022-12-11T12:09:35;99678.69;;;4.27;48.58
4570;BME280;2297;51.442;6.996;2022-12-11T12:12:14;99688.22;;;4.34;48.24
4570;BME280;2297;51.442;6.996;2022-12-11T12:14:54;99677.75;;;4.36;47.83
4570;BME280;2297;51.442;6.996;2022-12-11T12:17:31;99672.59;;;4.25;47.63
4570;BME280;2297;51.442;6.996;2022-12-11T12:20:11;99675.22;;;4.25;47.89
4570;BME280;2297;51.442;6.996;2022-12-11T12:22:55;99683.00;;;4.37;47.94
4570;BME280;2297;51.442;6.996;2022-12-11T12:25:26;99682.22;;;4.23;48.02
4570;BME280;2297;51.442;6.996;2022-12-11T12:27:59;99678.75;;;4.18;48.22
4570;BME280;2297;51.442;6.996;2022-12-11T12:30:30;99673.56;;;4.08;47.82
4570;BME280;2297;51.442;6.996;2022-12-11T12:33:17;99670.91;;;4.14;48.19
4570;BME280;2297;51.442;6.996;2022-12-11T12:35:55;99664.78;;;4.22;47.96
4570;BME280;2297;51.442;6.996;2022-12-11T12:38:35;99662.19;;;4.20;47.72
4570;BME280;2297;51.442;6.996;2022-12-11T12:41:12;99651.78;;;4.09;47.50
4570;BME280;2297;51.442;6.996;2022-12-11T12:43:59;99668.31;;;4.11;47.18
4570;BME280;2297;51.442;6.996;2022-12-11T12:46:37;99657.81;;;4.14;47.15
4570;BME280;2297;51.442;6.996;2022-12-11T12:49:11;99657.78;;;4.27;47.15
4570;BME280;2297;51.442;6.996;2022-12-11T12:51:41;99659.50;;;4.26;47.20
4570;BME280;2297;51.442;6.996;2022-12-11T12:54:14;99659.59;;;4.12;47.48
4570;BME280;2297;51.442;6.996;2022-12-11T12:56:41;99659.63;;;4.09;47.52
4570;BME280;2297;51.442;6.996;2022-12-11T12:59:18;99658.66;;;4.24;47.75
4570;BME280;2297;51.442;6.996;2022-12-11T13:01:46;99653.41;;;4.27;46.89
4570;BME280;2297;51.442;6.996;2022-12-11T13:04:33;99648.16;;;4.29;46.27
4570;BME280;2297;51.442;6.996;2022-12-11T13:07:10;99651.66;;;4.32;46.28
4570;BME280;2297;51.442;6.996;2022-12-11T13:09:38;99649.84;;;4.41;46.12
4570;BME280;2297;51.442;6.996;2022-12-11T13:12:12;99652.41;;;4.48;46.16
4570;BME280;2297;51.442;6.996;2022-12-11T13:14:38;99656.75;;;4.54;46.69
4570;BME280;2297;51.442;6.996;2022-12-11T13:17:22;99654.94;;;4.61;46.56
4570;BME280;2297;51.442;6.996;2022-12-11T13:20:10;99655.88;;;4.54;45.94
4570;BME280;2297;51.442;6.996;2022-12-11T13:22:48;99654.19;;;4.46;45.70
4570;BME280;2297;51.442;6.996;2022-12-11T13:25:19;99654.25;;;4.39;46.04
4570;BME280;2297;51.442;6.996;2022-12-11T13:27:46;99647.22;;;4.42;45.69
4570;BME280;2297;51.442;6.996;2022-12-11T13:30:21;99645.47;;;4.44;45.95
4570;BME280;2297;51.442;6.996;2022-12-11T13:32:56;99657.75;;;4.31;45.83
4570;BME280;2297;51.442;6.996;2022-12-11T13:35:26;99648.97;;;4.43;45.69
4570;BME280;2297;51.442;6.996;2022-12-11T13:37:52;99646.28;;;4.56;46.05
4570;BME280;2297;51.442;6.996;2022-12-11T13:40:25;99647.13;;;4.58;45.53
4570;BME280;2297;51.442;6.996;2022-12-11T13:42:54;99649.72;;;4.62;45.73
4570;BME280;2297;51.442;6.996;2022-12-11T13:45:26;99651.56;;;4.50;45.90
4570;BME280;2297;51.442;6.996;2022-12-11T13:47:55;99654.19;;;4.46;46.27
4570;BME280;2297;51.442;6.996;2022-12-11T13:50:24;99654.19;;;4.46;46.52